createdAt,value
2023-05-14T00:00:51.070Z,19523.0762
2023-05-14T00:01:52.500Z,19528.3086
2023-05-14T00:02:53.943Z,19523.6152
2023-05-14T00:03:55.321Z,19527.8457
2023-05-14T00:04:56.663Z,19526.9238
2023-05-14T00:05:58.109Z,19528.2305
2023-05-14T00:06:59.626Z,19526.0762
2023-05-14T00:08:01.001Z,19526.7695
2023-05-14T00:09:02.356Z,19528.7695
2023-05-14T00:10:03.832Z,19530.5391
2023-05-14T00:11:05.205Z,19528.6914
2023-05-14T00:12:06.742Z,19525.2305
2023-05-14T00:13:08.143Z,19528.3848
2023-05-14T00:14:09.513Z,19526.5391
2023-05-14T00:15:10.872Z,19526.1543
2023-05-14T00:16:12.398Z,19529.3086
2023-05-14T00:17:13.769Z,19526.7695
2023-05-14T00:18:15.251Z,19528.3086
2023-05-14T00:19:16.671Z,19528.0762
2023-05-14T00:20:18.117Z,19528.0762
2023-05-14T00:21:19.393Z,19525.7695
2023-05-14T00:22:20.897Z,19522.4609
2023-05-14T00:23:22.351Z,19527.1543
2023-05-14T00:24:23.719Z,19530.4609
2023-05-14T00:25:25.085Z,19525.3086
2023-05-14T00:26:26.631Z,19524.8457
2023-05-14T00:27:28.064Z,19526.0000
2023-05-14T00:28:29.485Z,19525.8457
2023-05-14T00:29:30.891Z,19524.4609
2023-05-14T00:30:32.254Z,19527.9238
2023-05-14T00:31:33.813Z,19524.3848
2023-05-14T00:32:35.144Z,19526.9238
2023-05-14T00:33:36.560Z,19528.6152
2023-05-14T00:34:37.954Z,19524.9238
2023-05-14T00:35:39.401Z,19527.4609
2023-05-14T00:36:40.816Z,19526.3086
2023-05-14T00:37:42.282Z,19528.6914
2023-05-14T00:38:43.615Z,19525.3848
2023-05-14T00:39:45.080Z,19532.4609
2023-05-14T00:40:46.472Z,19524.3086
2023-05-14T00:41:47.840Z,19525.0762
2023-05-14T00:42:49.271Z,19522.8457
2023-05-14T00:43:50.834Z,19526.9238
2023-05-14T00:44:52.183Z,19525.6914
2023-05-14T00:45:53.678Z,19523.4609
2023-05-14T00:46:55.097Z,19524.3848
2023-05-14T00:47:56.519Z,19526.5391
2023-05-14T00:48:57.928Z,19525.0762
2023-05-14T00:49:59.349Z,19526.2305
2023-05-14T00:51:00.739Z,19526.1543
2023-05-14T00:52:02.200Z,19526.7695
2023-05-14T00:53:03.643Z,19525.9238
2023-05-14T00:54:05.805Z,19526.8457
2023-05-14T00:55:06.584Z,19528.6914
2023-05-14T00:56:07.841Z,19527.9238
2023-05-14T00:57:09.307Z,19528.6152
2023-05-14T00:58:10.742Z,19525.0762
2023-05-14T00:59:12.193Z,19525.6152
2023-05-14T01:00:13.500Z,19530.9238
2023-05-14T01:01:14.980Z,19526.9238
2023-05-14T01:02:16.479Z,19533.6152
2023-05-14T01:03:18.007Z,19527.1543
2023-05-14T01:04:19.273Z,19529.0762
2023-05-14T01:05:20.755Z,19530.6914
2023-05-14T01:06:22.090Z,19530.2305
2023-05-14T01:07:23.520Z,19525.9238
2023-05-14T01:08:25.046Z,19529.6914
2023-05-14T01:09:26.397Z,19528.9238
2023-05-14T01:10:27.810Z,19532.6152
2023-05-14T01:11:29.282Z,19532.1543
2023-05-14T01:12:30.701Z,19530.3848
2023-05-14T01:13:32.049Z,19527.6152
2023-05-14T01:14:33.476Z,19530.1543
2023-05-14T01:15:34.903Z,19530.4609
2023-05-14T01:16:36.382Z,19532.7695
2023-05-14T01:17:37.811Z,19526.9238
2023-05-14T01:18:39.288Z,19533.2305
2023-05-14T01:19:40.664Z,19524.1543
2023-05-14T01:20:42.071Z,19526.4609
2023-05-14T01:21:43.458Z,19529.4609
2023-05-14T01:22:44.943Z,19528.7695
2023-05-14T01:23:46.324Z,19532.6152
2023-05-14T01:24:47.733Z,19529.6152
2023-05-14T01:25:49.222Z,19532.0000
2023-05-14T01:26:50.527Z,19532.7695
2023-05-14T01:27:52.109Z,19530.4609
2023-05-14T01:28:53.416Z,19527.4609
2023-05-14T01:29:54.833Z,19528.3848
2023-05-14T01:30:56.407Z,19528.4609
2023-05-14T01:31:58.906Z,19531.1543
2023-05-14T01:32:59.197Z,19531.4609
2023-05-14T01:34:00.612Z,19532.3848
2023-05-14T01:35:02.084Z,19527.3848
2023-05-14T01:36:04.370Z,19527.8457
2023-05-14T01:37:04.952Z,19525.2305
2023-05-14T01:38:06.408Z,19533.3848
2023-05-14T01:39:07.788Z,19532.2305
2023-05-14T01:40:09.143Z,19527.0762
2023-05-14T01:41:10.634Z,19529.0762
2023-05-14T01:42:12.064Z,19532.1543
2023-05-14T01:43:13.489Z,19531.3848
2023-05-14T01:44:14.898Z,19525.9238
2023-05-14T01:45:16.286Z,19527.9238
2023-05-14T01:46:17.808Z,19531.1543
2023-05-14T01:47:19.886Z,19529.5391
2023-05-14T01:48:20.567Z,19529.6152
2023-05-14T01:49:21.958Z,19536.0000
2023-05-14T01:50:23.689Z,19530.2305
2023-05-14T01:51:24.853Z,19534.4609
2023-05-14T01:52:26.283Z,19532.0762
2023-05-14T01:53:27.631Z,19531.0762
2023-05-14T01:54:29.144Z,19525.9238
2023-05-14T01:55:30.472Z,19533.6152
2023-05-14T01:56:31.959Z,19534.4609
2023-05-14T01:57:33.446Z,19531.3848
2023-05-14T01:58:34.757Z,19532.2305
2023-05-14T01:59:36.118Z,19530.3086
2023-05-14T02:00:37.614Z,19535.0762
2023-05-14T02:01:39.131Z,19530.8457
2023-05-14T02:02:40.476Z,19534.4609
2023-05-14T02:03:42.006Z,19532.9238
2023-05-14T02:04:43.321Z,19536.6152
2023-05-14T02:05:44.686Z,19535.6914
2023-05-14T02:06:46.852Z,19536.3848
2023-05-14T02:07:47.669Z,19534.9238
2023-05-14T02:08:48.977Z,19533.3086
2023-05-14T02:09:50.473Z,19532.8457
2023-05-14T02:10:51.823Z,19533.2305
2023-05-14T02:11:53.353Z,19533.0000
2023-05-14T02:12:54.685Z,19534.4609
2023-05-14T02:13:56.162Z,19532.2305
2023-05-14T02:14:57.613Z,19533.4609
2023-05-14T02:15:59.121Z,19532.3848
2023-05-14T02:17:00.429Z,19534.3848
2023-05-14T02:18:01.993Z,19537.4609
2023-05-14T02:19:03.378Z,19536.3848
2023-05-14T02:20:04.677Z,19532.4609
2023-05-14T02:21:06.080Z,19536.1543
2023-05-14T02:22:07.569Z,19533.0762
2023-05-14T02:23:08.932Z,19534.3086
2023-05-14T02:24:10.314Z,19534.8457
2023-05-14T02:25:11.778Z,19532.5391
2023-05-14T02:26:13.253Z,19536.1543
2023-05-14T02:27:14.776Z,19536.8457
2023-05-14T02:28:16.047Z,19531.2305
2023-05-14T02:29:17.483Z,19535.3848
2023-05-14T02:30:18.859Z,19537.4609
2023-05-14T02:31:20.395Z,19538.0762
2023-05-14T02:32:21.827Z,19533.0762
2023-05-14T02:33:23.322Z,19537.8457
2023-05-14T02:34:24.599Z,19535.4609
2023-05-14T02:35:26.068Z,19534.6152
2023-05-14T02:36:27.420Z,19538.1543
2023-05-14T02:37:28.992Z,19539.5391
2023-05-14T02:38:30.292Z,19538.9238
2023-05-14T02:39:31.643Z,19539.5391
2023-05-14T02:40:33.107Z,19537.6152
2023-05-14T02:41:34.593Z,19538.0000
2023-05-14T02:42:35.990Z,19537.9238
2023-05-14T02:43:37.440Z,19533.8457
2023-05-14T02:44:38.722Z,19535.7695
2023-05-14T02:45:40.306Z,19536.4609
2023-05-14T02:46:41.719Z,19536.9238
2023-05-14T02:47:43.945Z,19542.3848
2023-05-14T02:48:45.333Z,19541.6152
2023-05-14T02:49:45.831Z,19539.0000
2023-05-14T02:50:47.420Z,19537.4609
2023-05-14T02:51:48.778Z,19541.7695
2023-05-14T02:52:50.293Z,19539.3848
2023-05-14T02:53:51.696Z,19541.0762
2023-05-14T02:54:53.814Z,19540.7695
2023-05-14T02:55:54.546Z,19538.6152
2023-05-14T02:56:55.908Z,19543.0762
2023-05-14T02:57:57.356Z,19536.8457
2023-05-14T02:58:59.417Z,19540.3848
2023-05-14T03:00:00.052Z,19541.8457
2023-05-14T03:01:01.647Z,19544.6152
2023-05-14T03:02:03.093Z,19545.6914
2023-05-14T03:03:04.467Z,19540.6914
2023-05-14T03:04:05.899Z,19544.7695
2023-05-14T03:05:07.286Z,19541.9238
2023-05-14T03:06:08.728Z,19543.3086
2023-05-14T03:07:10.116Z,19546.6914
2023-05-14T03:08:11.449Z,19540.2305
2023-05-14T03:09:12.956Z,19539.7695
2023-05-14T03:10:14.407Z,19541.0000
2023-05-14T03:11:15.792Z,19546.0000
2023-05-14T03:12:17.246Z,19541.3848
2023-05-14T03:13:18.552Z,19541.3086
2023-05-14T03:14:20.063Z,19544.3086
2023-05-14T03:15:21.414Z,19546.3086
2023-05-14T03:16:22.930Z,19542.6914
2023-05-14T03:17:24.274Z,19547.6152
2023-05-14T03:18:25.855Z,19545.6914
2023-05-14T03:19:27.160Z,19545.4609
2023-05-14T03:20:28.593Z,19543.6152
2023-05-14T03:21:30.020Z,19544.8457
2023-05-14T03:22:31.425Z,19548.1543
2023-05-14T03:23:33.366Z,19546.4609
2023-05-14T03:24:34.289Z,19545.4609
2023-05-14T03:25:35.702Z,19543.3086
2023-05-14T03:26:37.076Z,19547.1543
2023-05-14T03:27:38.551Z,19549.5391
2023-05-14T03:28:39.977Z,19547.6914
2023-05-14T03:29:41.416Z,19546.7695
2023-05-14T03:30:42.920Z,19547.6152
2023-05-14T03:31:44.240Z,19548.1543
2023-05-14T03:32:45.642Z,19547.3086
2023-05-14T03:33:47.048Z,19547.0000
2023-05-14T03:34:48.486Z,19546.6152
2023-05-14T03:35:49.920Z,19551.1543
2023-05-14T03:36:51.283Z,19548.3086
2023-05-14T03:37:52.753Z,19546.7695
2023-05-14T03:38:54.180Z,19552.5391
2023-05-14T03:39:55.668Z,19550.0000
2023-05-14T03:40:57.014Z,19548.6914
2023-05-14T03:41:58.441Z,19550.3086
2023-05-14T03:42:59.827Z,19551.6914
2023-05-14T03:44:01.320Z,19547.3086
2023-05-14T03:45:02.760Z,19551.0000
2023-05-14T03:46:04.139Z,19553.0762
2023-05-14T03:47:05.605Z,19551.9238
2023-05-14T03:48:07.102Z,19552.6914
2023-05-14T03:49:08.482Z,19551.4609
2023-05-14T03:50:09.958Z,19554.9238
2023-05-14T03:51:11.259Z,19550.0000
2023-05-14T03:52:12.695Z,19554.2305
2023-05-14T03:53:14.093Z,19554.0762
2023-05-14T03:54:15.549Z,19555.6914
2023-05-14T03:55:17.024Z,19551.4609
2023-05-14T03:56:18.285Z,19551.3848
2023-05-14T03:57:19.756Z,19552.1543
2023-05-14T03:58:21.237Z,19553.0762
2023-05-14T03:59:22.651Z,19556.6152
2023-05-14T04:00:24.333Z,19556.2305
2023-05-14T04:01:25.505Z,19555.7695
2023-05-14T04:02:27.046Z,19551.3848
2023-05-14T04:03:28.407Z,19547.2305
2023-05-14T04:04:29.828Z,19551.2305
2023-05-14T04:05:31.904Z,19549.9238
2023-05-14T04:06:32.607Z,19550.1543
2023-05-14T04:07:34.014Z,19552.4609
2023-05-14T04:08:35.509Z,19546.1543
2023-05-14T04:09:36.938Z,19554.8457
2023-05-14T04:10:38.448Z,19555.9238
2023-05-14T04:11:39.792Z,19553.3086
2023-05-14T04:12:41.184Z,19555.8457
2023-05-14T04:13:42.569Z,19552.0000
2023-05-14T04:14:44.046Z,19549.9238
2023-05-14T04:15:46.354Z,19551.1543
2023-05-14T04:16:46.980Z,19547.6152
2023-05-14T04:17:48.350Z,19549.7695
2023-05-14T04:18:49.780Z,19550.0000
2023-05-14T04:19:51.141Z,19549.8457
2023-05-14T04:20:52.609Z,19545.9238
2023-05-14T04:21:54.033Z,19550.9238
2023-05-14T04:22:55.352Z,19545.7695
2023-05-14T04:23:56.871Z,19548.3086
2023-05-14T04:24:58.393Z,19542.5391
2023-05-14T04:25:59.681Z,19542.1543
2023-05-14T04:27:01.150Z,19542.5391
2023-05-14T04:28:02.514Z,19543.3086
2023-05-14T04:29:03.884Z,19548.5391
2023-05-14T04:30:05.380Z,19544.5391
2023-05-14T04:31:06.831Z,19544.0762
2023-05-14T04:32:08.307Z,19543.5391
2023-05-14T04:33:09.748Z,19541.6152
2023-05-14T04:34:11.076Z,19544.0000
2023-05-14T04:35:12.561Z,19539.3848
2023-05-14T04:36:13.957Z,19544.9238
2023-05-14T04:37:15.289Z,19543.9238
2023-05-14T04:38:16.762Z,19538.7695
2023-05-14T04:39:18.217Z,19542.8457
2023-05-14T04:40:19.704Z,19540.9238
2023-05-14T04:41:21.145Z,19542.0762
2023-05-14T04:42:22.443Z,19537.8457
2023-05-14T04:43:23.934Z,19538.1543
2023-05-14T04:44:25.315Z,19541.3848
2023-05-14T04:45:26.819Z,19541.5391
2023-05-14T04:46:28.369Z,19539.5391
2023-05-14T04:47:29.762Z,19536.2305
2023-05-14T04:48:31.052Z,19536.7695
2023-05-14T04:49:32.534Z,19539.6914
2023-05-14T04:50:33.900Z,19536.4609
2023-05-14T04:51:35.386Z,19536.8457
2023-05-14T04:52:36.749Z,19539.3848
2023-05-14T04:53:38.217Z,19538.5391
2023-05-14T04:54:39.716Z,19536.6914
2023-05-14T04:55:40.958Z,19533.5391
2023-05-14T04:56:42.582Z,19537.1543
2023-05-14T04:57:43.901Z,19535.7695
2023-05-14T04:58:45.284Z,19539.2305
2023-05-14T04:59:46.770Z,19533.7695
2023-05-14T05:00:48.253Z,19537.7695
2023-05-14T05:01:49.698Z,19538.4609
2023-05-14T05:02:51.029Z,19539.8457
2023-05-14T05:03:52.368Z,19536.9238
2023-05-14T05:04:53.880Z,19537.9238
2023-05-14T05:05:55.322Z,19541.6152
2023-05-14T05:06:56.745Z,19538.6914
2023-05-14T05:07:58.188Z,19535.8457
2023-05-14T05:09:01.845Z,19533.6914
2023-05-14T05:10:00.991Z,19533.6152
2023-05-14T05:11:02.464Z,19534.3848
2023-05-14T05:12:03.866Z,19532.8457
2023-05-14T05:13:05.376Z,19537.8457
2023-05-14T05:14:06.826Z,19537.6914
2023-05-14T05:15:08.137Z,19533.5391
2023-05-14T05:16:09.723Z,19536.3848
2023-05-14T05:17:11.012Z,19536.6152
2023-05-14T05:18:12.467Z,19529.6914
2023-05-14T05:19:13.981Z,19532.4609
2023-05-14T05:20:15.377Z,19535.3848
2023-05-14T05:21:16.650Z,19535.0762
2023-05-14T05:22:18.947Z,19535.3086
2023-05-14T05:23:19.491Z,19539.6152
2023-05-14T05:24:20.962Z,19543.2305
2023-05-14T05:25:22.389Z,19538.0000
2023-05-14T05:26:23.802Z,19532.9238
2023-05-14T05:27:25.237Z,19532.8457
2023-05-14T05:28:26.664Z,19535.1543
2023-05-14T05:29:28.031Z,19536.0762
2023-05-14T05:30:29.475Z,19538.3086
2023-05-14T05:31:30.970Z,19530.2305
2023-05-14T05:32:32.487Z,19540.3086
2023-05-14T05:33:33.839Z,19534.1543
2023-05-14T05:34:35.255Z,19528.0000
2023-05-14T05:35:36.710Z,19526.2305
2023-05-14T05:36:38.039Z,19529.1543
2023-05-14T05:37:39.565Z,19527.5391
2023-05-14T05:38:40.973Z,19531.9238
2023-05-14T05:39:42.390Z,19529.9238
2023-05-14T05:40:43.774Z,19530.3086
2023-05-14T05:41:45.353Z,19529.0762
2023-05-14T05:42:46.613Z,19532.9238
2023-05-14T05:43:48.190Z,19527.3086
2023-05-14T05:44:49.591Z,19533.4609
2023-05-14T05:45:51.002Z,19537.1543
2023-05-14T05:46:52.386Z,19539.6914
2023-05-14T05:47:53.874Z,19534.7695
2023-05-14T05:48:55.130Z,19529.1543
2023-05-14T05:49:56.612Z,19523.7695
2023-05-14T05:50:57.986Z,19529.8457
2023-05-14T05:51:59.459Z,19534.3848
2023-05-14T05:53:00.934Z,19525.1543
2023-05-14T05:54:02.470Z,19531.9238
2023-05-14T05:55:03.781Z,19527.7695
2023-05-14T05:56:05.123Z,19525.6152
2023-05-14T05:57:06.578Z,19528.0000
2023-05-14T05:58:08.030Z,19530.0000
2023-05-14T05:59:09.468Z,19527.4609
2023-05-14T06:00:10.869Z,19525.9238
2023-05-14T06:01:12.255Z,19527.8457
2023-05-14T06:02:13.773Z,19533.2305
2023-05-14T06:03:15.163Z,19525.3848
2023-05-14T06:04:16.609Z,19521.6914
2023-05-14T06:05:18.007Z,19520.3086
2023-05-14T06:06:19.535Z,19516.4609
2023-05-14T06:07:20.794Z,19515.7695
2023-05-14T06:08:22.273Z,19512.7695
2023-05-14T06:09:23.664Z,19502.6914
2023-05-14T06:10:25.374Z,19495.7695
2023-05-14T06:11:26.497Z,19487.8457
2023-05-14T06:12:27.953Z,19486.4609
2023-05-14T06:13:29.350Z,19490.6152
2023-05-14T06:14:30.829Z,19486.6152
2023-05-14T06:15:32.165Z,19478.6152
2023-05-14T06:16:33.697Z,19472.3848
2023-05-14T06:17:35.063Z,19462.0000
2023-05-14T06:18:36.582Z,19451.3086
2023-05-14T06:19:37.969Z,19453.5391
2023-05-14T06:20:39.389Z,19453.6914
2023-05-14T06:21:40.680Z,19453.3086
2023-05-14T06:22:42.122Z,19449.7695
2023-05-14T06:23:43.625Z,19444.1543
2023-05-14T06:24:45.017Z,19439.4609
2023-05-14T06:25:46.570Z,19428.7695
2023-05-14T06:26:47.849Z,19426.0762
2023-05-14T06:27:49.258Z,19414.2305
2023-05-14T06:28:50.624Z,19410.0762
2023-05-14T06:29:52.069Z,19405.6152
2023-05-14T06:30:53.514Z,19413.5391
2023-05-14T06:31:54.999Z,19413.0000
2023-05-14T06:32:56.335Z,19404.6914
2023-05-14T06:33:57.645Z,19396.0762
2023-05-14T06:34:59.183Z,19389.3086
2023-05-14T06:36:00.570Z,19391.1543
2023-05-14T06:37:01.973Z,19403.6914
2023-05-14T06:38:03.372Z,19402.0000
2023-05-14T06:39:04.805Z,19390.2305
2023-05-14T06:40:06.269Z,19385.8457
2023-05-14T06:41:07.670Z,19375.3086
2023-05-14T06:42:09.027Z,19366.7695
2023-05-14T06:43:10.585Z,19381.7695
2023-05-14T06:44:11.917Z,19390.3848
2023-05-14T06:45:13.398Z,19383.5391
2023-05-14T06:46:14.760Z,19368.3086
2023-05-14T06:47:16.213Z,19361.6914
2023-05-14T06:48:17.549Z,19357.4609
2023-05-14T06:49:19.024Z,19365.6152
2023-05-14T06:50:20.518Z,19373.9238
2023-05-14T06:51:21.924Z,19370.3848
2023-05-14T06:52:23.353Z,19360.6914
2023-05-14T06:53:24.797Z,19344.8457
2023-05-14T06:54:26.191Z,19345.2305
2023-05-14T06:55:27.602Z,19352.9238
2023-05-14T06:56:28.947Z,19366.8457
2023-05-14T06:57:30.505Z,19357.7695
2023-05-14T06:58:31.769Z,19350.6914
2023-05-14T06:59:33.245Z,19338.3848
2023-05-14T07:00:34.710Z,19340.4609
2023-05-14T07:01:36.234Z,19358.0000
2023-05-14T07:02:37.401Z,19358.1543
2023-05-14T07:03:39.017Z,19345.0762
2023-05-14T07:04:40.392Z,19331.2305
2023-05-14T07:05:41.842Z,19332.6152
2023-05-14T07:06:43.187Z,19349.5391
2023-05-14T07:07:44.629Z,19354.9238
2023-05-14T07:08:46.030Z,19338.6914
2023-05-14T07:09:47.464Z,19326.4609
2023-05-14T07:10:48.929Z,19327.2305
2023-05-14T07:11:50.329Z,19346.6914
2023-05-14T07:12:51.725Z,19346.3086
2023-05-14T07:13:53.244Z,19329.6152
2023-05-14T07:14:54.551Z,19319.0000
2023-05-14T07:15:56.089Z,19330.6152
2023-05-14T07:16:57.523Z,19348.5391
2023-05-14T07:17:58.907Z,19353.0000
2023-05-14T07:19:00.331Z,19347.6152
2023-05-14T07:20:01.833Z,19341.0000
2023-05-14T07:21:03.168Z,19352.0000
2023-05-14T07:22:04.492Z,19373.9238
2023-05-14T07:23:05.902Z,19382.2305
2023-05-14T07:24:07.444Z,19372.5391
2023-05-14T07:25:08.782Z,19365.8457
2023-05-14T07:26:10.287Z,19374.5391
2023-05-14T07:27:11.770Z,19391.9238
2023-05-14T07:28:13.126Z,19393.0000
2023-05-14T07:29:14.406Z,19385.8457
2023-05-14T07:30:16.077Z,19377.7695
2023-05-14T07:31:17.360Z,19375.9238
2023-05-14T07:32:18.781Z,19378.3086
2023-05-14T07:33:20.210Z,19387.8457
2023-05-14T07:34:21.585Z,19398.7695
2023-05-14T07:35:23.022Z,19400.0762
2023-05-14T07:36:24.496Z,19392.8457
2023-05-14T07:37:25.941Z,19393.7695
2023-05-14T07:38:27.350Z,19388.1543
2023-05-14T07:39:28.765Z,19384.3086
2023-05-14T07:40:30.140Z,19388.2305
2023-05-14T07:41:31.661Z,19401.6152
2023-05-14T07:42:36.588Z,19408.4609
2023-05-14T07:43:34.390Z,19401.3848
2023-05-14T07:44:35.834Z,19397.3848
2023-05-14T07:45:37.288Z,19396.6914
2023-05-14T07:46:38.694Z,19393.3086
2023-05-14T07:47:40.152Z,19394.2305
2023-05-14T07:48:41.528Z,19398.6914
2023-05-14T07:49:42.919Z,19409.6152
2023-05-14T07:50:44.358Z,19415.0000
2023-05-14T07:51:45.836Z,19405.8457
2023-05-14T07:52:47.231Z,19404.0000
2023-05-14T07:53:48.624Z,19402.0000
2023-05-14T07:54:50.757Z,19404.6914
2023-05-14T07:55:51.436Z,19398.0000
2023-05-14T07:56:52.889Z,19402.6152
2023-05-14T07:57:54.356Z,19413.9238
2023-05-14T07:58:55.693Z,19418.0762
2023-05-14T07:59:57.073Z,19413.8457
2023-05-14T08:00:58.555Z,19412.1543
2023-05-14T08:02:00.067Z,19407.6914
2023-05-14T08:03:01.459Z,19403.0000
2023-05-14T08:04:02.927Z,19397.8457
2023-05-14T08:05:04.257Z,19405.9238
2023-05-14T08:06:05.728Z,19416.3848
2023-05-14T08:07:07.122Z,19419.1543
2023-05-14T08:08:08.571Z,19416.8457
2023-05-14T08:09:09.894Z,19413.1543
2023-05-14T08:10:11.352Z,19408.0000
2023-05-14T08:11:12.753Z,19405.3848
2023-05-14T08:12:14.222Z,19401.9238
2023-05-14T08:13:15.652Z,19408.6152
2023-05-14T08:14:16.952Z,19418.4609
2023-05-14T08:15:18.434Z,19421.6152
2023-05-14T08:16:19.949Z,19413.6914
2023-05-14T08:17:21.348Z,19412.5391
2023-05-14T08:18:22.765Z,19410.6914
2023-05-14T08:19:24.168Z,19404.6152
2023-05-14T08:20:25.886Z,19402.3848
2023-05-14T08:21:26.969Z,19408.9238
2023-05-14T08:22:28.427Z,19417.5391
2023-05-14T08:23:29.885Z,19414.3848
2023-05-14T08:24:31.328Z,19410.7695
2023-05-14T08:25:32.713Z,19408.1543
2023-05-14T08:26:34.216Z,19402.1543
2023-05-14T08:27:35.597Z,19400.3848
2023-05-14T08:28:37.079Z,19398.4609
2023-05-14T08:29:38.454Z,19409.7695
2023-05-14T08:30:39.806Z,19412.6152
2023-05-14T08:31:41.304Z,19411.7695
2023-05-14T08:32:42.733Z,19410.0762
2023-05-14T08:33:44.173Z,19403.9238
2023-05-14T08:34:45.623Z,19399.4609
2023-05-14T08:35:46.961Z,19390.8457
2023-05-14T08:36:48.401Z,19411.3086
2023-05-14T08:37:49.819Z,19425.2305
2023-05-14T08:38:51.253Z,19428.5391
2023-05-14T08:39:52.680Z,19411.8457
2023-05-14T08:40:54.116Z,19404.5391
2023-05-14T08:41:55.462Z,19394.0000
2023-05-14T08:42:56.960Z,19392.0762
2023-05-14T08:43:58.381Z,19396.6914
2023-05-14T08:44:59.755Z,19412.3086
2023-05-14T08:46:01.217Z,19423.6152
2023-05-14T08:47:02.647Z,19417.7695
2023-05-14T08:48:04.091Z,19406.4609
2023-05-14T08:49:05.593Z,19399.9238
2023-05-14T08:50:06.864Z,19391.0762
2023-05-14T08:51:08.250Z,19381.9238
2023-05-14T08:52:09.640Z,19394.6152
2023-05-14T08:53:11.109Z,19417.9238
2023-05-14T08:54:12.481Z,19415.7695
2023-05-14T08:55:14.051Z,19407.0000
2023-05-14T08:56:15.336Z,19396.9238
2023-05-14T08:57:16.799Z,19390.1543
2023-05-14T08:58:18.136Z,19387.9238
2023-05-14T08:59:19.713Z,19395.6152
2023-05-14T09:00:21.164Z,19416.0762
2023-05-14T09:01:22.582Z,19410.6152
2023-05-14T09:02:23.937Z,19401.0762
2023-05-14T09:03:25.432Z,19396.6152
2023-05-14T09:04:26.818Z,19389.3848
2023-05-14T09:05:28.253Z,19382.4609
2023-05-14T09:06:29.688Z,19394.3086
2023-05-14T09:07:31.024Z,19416.7695
2023-05-14T09:08:32.397Z,19411.7695
2023-05-14T09:09:33.922Z,19405.3848
2023-05-14T09:10:35.344Z,19396.1543
2023-05-14T09:11:36.692Z,19392.5391
2023-05-14T09:12:38.176Z,19388.4609
2023-05-14T09:13:39.574Z,19382.7695
2023-05-14T09:14:41.004Z,19398.4609
2023-05-14T09:15:42.360Z,19418.0762
2023-05-14T09:16:43.886Z,19413.0762
2023-05-14T09:17:45.320Z,19409.0762
2023-05-14T09:18:46.810Z,19396.3086
2023-05-14T09:19:48.205Z,19391.5391
2023-05-14T09:20:49.497Z,19387.6914
2023-05-14T09:21:50.932Z,19387.6152
2023-05-14T09:22:52.364Z,19417.0762
2023-05-14T09:23:53.796Z,19424.3848
2023-05-14T09:24:55.256Z,19411.8457
2023-05-14T09:25:56.748Z,19405.6914
2023-05-14T09:26:58.042Z,19399.9238
2023-05-14T09:27:59.482Z,19388.3086
2023-05-14T09:29:00.764Z,19389.1543
2023-05-14T09:30:02.413Z,19387.4609
2023-05-14T09:31:03.869Z,19405.4609
2023-05-14T09:32:05.353Z,19419.0762
2023-05-14T09:33:06.591Z,19416.2305
2023-05-14T09:34:08.038Z,19407.6152
2023-05-14T09:35:09.520Z,19404.0000
2023-05-14T09:36:11.038Z,19398.6914
2023-05-14T09:37:12.401Z,19394.7695
2023-05-14T09:38:13.869Z,19387.4609
2023-05-14T09:39:15.272Z,19399.3086
2023-05-14T09:40:16.832Z,19424.3086
2023-05-14T09:41:18.108Z,19424.8457
2023-05-14T09:42:19.530Z,19417.0000
2023-05-14T09:43:20.978Z,19409.0762
2023-05-14T09:44:22.374Z,19404.4609
2023-05-14T09:45:23.813Z,19398.8457
2023-05-14T09:46:25.294Z,19391.2305
2023-05-14T09:47:26.706Z,19386.5391
2023-05-14T09:48:28.143Z,19403.4609
2023-05-14T09:49:29.492Z,19420.2305
2023-05-14T09:50:30.976Z,19420.6914
2023-05-14T09:51:32.399Z,19409.3086
2023-05-14T09:52:33.832Z,19401.6914
2023-05-14T09:53:35.287Z,19396.2305
2023-05-14T09:54:36.613Z,19393.1543
2023-05-14T09:55:38.106Z,19388.6152
2023-05-14T09:56:39.627Z,19410.0000
2023-05-14T09:57:40.987Z,19428.2305
2023-05-14T09:58:42.265Z,19415.7695
2023-05-14T09:59:43.837Z,19409.1543
2023-05-14T10:00:45.239Z,19401.3086
2023-05-14T10:01:46.707Z,19395.6152
2023-05-14T10:02:48.144Z,19385.0000
2023-05-14T10:03:49.644Z,19387.3848
2023-05-14T10:04:50.963Z,19410.1543
2023-05-14T10:05:52.462Z,19423.4609
2023-05-14T10:06:53.837Z,19414.6914
2023-05-14T10:07:55.333Z,19405.7695
2023-05-14T10:08:56.613Z,19393.6914
2023-05-14T10:09:59.590Z,19381.0762
2023-05-14T10:10:59.529Z,19380.4609
2023-05-14T10:12:00.965Z,19398.6152
2023-05-14T10:13:02.479Z,19418.0000
2023-05-14T10:14:03.780Z,19409.0762
2023-05-14T10:15:05.158Z,19405.5391
2023-05-14T10:16:06.661Z,19397.0762
2023-05-14T10:17:08.436Z,19381.6152
2023-05-14T10:18:09.710Z,19374.7695
2023-05-14T10:19:10.931Z,19386.0762
2023-05-14T10:20:12.426Z,19408.0000
2023-05-14T10:21:13.767Z,19409.1543
2023-05-14T10:22:15.197Z,19396.0000
2023-05-14T10:23:16.626Z,19391.0000
2023-05-14T10:24:18.116Z,19376.1543
2023-05-14T10:25:19.447Z,19369.3848
2023-05-14T10:26:23.087Z,19373.0762
2023-05-14T10:27:22.380Z,19405.6152
2023-05-14T10:28:23.784Z,19411.4609
2023-05-14T10:29:25.246Z,19395.7695
2023-05-14T10:30:26.889Z,19388.1543
2023-05-14T10:31:28.107Z,19373.9238
2023-05-14T10:32:29.622Z,19370.6152
2023-05-14T10:33:30.921Z,19402.2305
2023-05-14T10:34:32.382Z,19411.6914
2023-05-14T10:35:33.603Z,19400.3086
2023-05-14T10:36:35.190Z,19384.3086
2023-05-14T10:37:36.630Z,19372.7695
2023-05-14T10:38:38.067Z,19364.7695
2023-05-14T10:39:39.505Z,19370.6914
2023-05-14T10:40:40.864Z,19400.9238
2023-05-14T10:41:42.288Z,19410.4609
2023-05-14T10:42:43.734Z,19395.7695
2023-05-14T10:43:45.167Z,19383.7695
2023-05-14T10:44:46.611Z,19370.5391
2023-05-14T10:45:47.949Z,19372.0762
2023-05-14T10:46:49.467Z,19395.2305
2023-05-14T10:47:51.045Z,19410.5391
2023-05-14T10:48:52.337Z,19400.7695
2023-05-14T10:49:53.700Z,19392.0762
2023-05-14T10:50:55.209Z,19376.6914
2023-05-14T10:51:56.527Z,19365.1543
2023-05-14T10:52:57.941Z,19374.5391
2023-05-14T10:53:59.371Z,19403.5391
2023-05-14T10:55:03.189Z,19405.4609
2023-05-14T10:56:02.250Z,19396.1543
2023-05-14T10:57:03.531Z,19386.4609
2023-05-14T10:58:05.211Z,19369.8457
2023-05-14T10:59:06.663Z,19363.9238
2023-05-14T11:00:08.664Z,19382.3086
2023-05-14T11:01:09.343Z,19402.2305
2023-05-14T11:02:10.868Z,19403.1543
2023-05-14T11:03:12.417Z,19386.4609
2023-05-14T11:04:13.795Z,19378.7695
2023-05-14T11:05:15.069Z,19368.7695
2023-05-14T11:06:16.541Z,19376.6914
2023-05-14T11:07:17.934Z,19401.2305
2023-05-14T11:08:19.358Z,19399.9238
2023-05-14T11:09:20.812Z,19390.5391
2023-05-14T11:10:22.510Z,19378.5391
2023-05-14T11:11:23.615Z,19371.0000
2023-05-14T11:12:25.010Z,19370.7695
2023-05-14T11:13:26.291Z,19393.7695
2023-05-14T11:14:27.887Z,19402.2305
2023-05-14T11:15:29.342Z,19393.0762
2023-05-14T11:16:30.691Z,19381.6914
2023-05-14T11:17:32.202Z,19378.0762
2023-05-14T11:18:33.643Z,19370.3086
2023-05-14T11:19:35.015Z,19373.6152
2023-05-14T11:20:36.362Z,19395.2305
2023-05-14T11:21:37.879Z,19403.3848